マドリード/バラハス の空港の天気 - METARとTAF

マドリード・バラハス国際空港 ( LEMD / MAD ) - スペイン マドリード
飛行場実況気象(Metar)
観測時間12/09 15:00 CET (12/09 14:00 UTC)
風向・風速南南東 1m/s
視程10km以上
天気現象
少しの雲 雲底高度 610m
気温11℃
湿度76%
気圧1028hPa
METARLEMD 091400Z 16002KT 9999 FEW020 11/07 Q1028 NOSIG
過去の天気等 Google飛行場航空写真 Wunderground天気予報

過去48時間のMETAR

飛行場予報(TAF)
発表時間: 12/09 13:54 CET (12/09 12:54 UTC)
予報対象時間: 9日13時 CET ~ 10日19時 CET
風向・風速不定 3m/s
視程10km以上
なし
9日13時 CET ~ 9日18時 CET に 確率 30% で一時的に
風向・風速南 4m/s 瞬間風速 9m/s
TAF AMD LEMD 091254Z 0912/1018 VRB05KT CAVOK TX12/0915Z TNM00/1006Z
PROB30 TEMPO 0912/0917 19008G18KT